sensor_id;sensor_type;location;lat;lon;timestamp;P1;durP1;ratioP1;P2;durP2;ratioP2
31224;SDS011;17847;31.524;74.366;2023-01-10T00:00:24;391.73;;;149.70;;
31224;SDS011;17847;31.524;74.366;2023-01-10T00:03:07;370.73;;;145.52;;
31224;SDS011;17847;31.524;74.366;2023-01-10T00:06:05;398.27;;;148.30;;
31224;SDS011;17847;31.524;74.366;2023-01-10T00:08:48;411.92;;;155.50;;
31224;SDS011;17847;31.524;74.366;2023-01-10T00:11:37;378.13;;;148.70;;
31224;SDS011;17847;31.524;74.366;2023-01-10T00:14:38;392.60;;;141.88;;
31224;SDS011;17847;31.524;74.366;2023-01-10T00:17:26;372.25;;;151.65;;
31224;SDS011;17847;31.524;74.366;2023-01-10T00:20:09;380.92;;;147.07;;
31224;SDS011;17847;31.524;74.366;2023-01-10T00:22:58;399.08;;;148.88;;
31224;SDS011;17847;31.524;74.366;2023-01-10T00:25:41;391.95;;;148.85;;
31224;SDS011;17847;31.524;74.366;2023-01-10T00:28:29;437.25;;;152.00;;
31224;SDS011;17847;31.524;74.366;2023-01-10T00:31:15;396.05;;;151.05;;
31224;SDS011;17847;31.524;74.366;2023-01-10T00:34:04;412.90;;;152.63;;
31224;SDS011;17847;31.524;74.366;2023-01-10T00:36:48;448.77;;;155.95;;
31224;SDS011;17847;31.524;74.366;2023-01-10T00:39:43;402.48;;;149.25;;
31224;SDS011;17847;31.524;74.366;2023-01-10T00:42:26;412.42;;;150.90;;
31224;SDS011;17847;31.524;74.366;2023-01-10T00:45:33;440.48;;;158.95;;
31224;SDS011;17847;31.524;74.366;2023-01-10T00:48:16;399.33;;;156.02;;
31224;SDS011;17847;31.524;74.366;2023-01-10T00:51:04;391.40;;;149.50;;
31224;SDS011;17847;31.524;74.366;2023-01-10T00:53:53;396.63;;;150.27;;
31224;SDS011;17847;31.524;74.366;2023-01-10T00:56:35;439.92;;;151.55;;
31224;SDS011;17847;31.524;74.366;2023-01-10T00:59:23;434.40;;;153.52;;
31224;SDS011;17847;31.524;74.366;2023-01-10T01:02:06;424.63;;;151.48;;
31224;SDS011;17847;31.524;74.366;2023-01-10T01:05:01;467.30;;;154.38;;
31224;SDS011;17847;31.524;74.366;2023-01-10T01:07:59;406.08;;;150.40;;
31224;SDS011;17847;31.524;74.366;2023-01-10T01:10:35;379.60;;;150.77;;
31224;SDS011;17847;31.524;74.366;2023-01-10T01:13:30;385.17;;;147.32;;
31224;SDS011;17847;31.524;74.366;2023-01-10T01:16:06;359.98;;;144.15;;
31224;SDS011;17847;31.524;74.366;2023-01-10T01:19:02;373.42;;;140.45;;
31224;SDS011;17847;31.524;74.366;2023-01-10T01:21:38;399.60;;;142.90;;
31224;SDS011;17847;31.524;74.366;2023-01-10T01:24:33;401.17;;;141.13;;
31224;SDS011;17847;31.524;74.366;2023-01-10T01:27:09;346.65;;;139.27;;
31224;SDS011;17847;31.524;74.366;2023-01-10T01:30:05;356.23;;;137.98;;
31224;SDS011;17847;31.524;74.366;2023-01-10T01:32:48;341.00;;;137.02;;
31224;SDS011;17847;31.524;74.366;2023-01-10T01:35:36;416.25;;;141.88;;
31224;SDS011;17847;31.524;74.366;2023-01-10T01:38:22;400.67;;;140.18;;
31224;SDS011;17847;31.524;74.366;2023-01-10T01:41:10;379.00;;;144.93;;
31224;SDS011;17847;31.524;74.366;2023-01-10T01:44:16;384.70;;;143.68;;
31224;SDS011;17847;31.524;74.366;2023-01-10T01:47:06;394.48;;;145.35;;
31224;SDS011;17847;31.524;74.366;2023-01-10T01:49:55;384.10;;;144.55;;
31224;SDS011;17847;31.524;74.366;2023-01-10T01:52:43;409.02;;;147.80;;
31224;SDS011;17847;31.524;74.366;2023-01-10T01:55:28;430.80;;;146.93;;
31224;SDS011;17847;31.524;74.366;2023-01-10T01:58:21;438.33;;;155.98;;
31224;SDS011;17847;31.524;74.366;2023-01-10T02:01:11;408.90;;;149.90;;
31224;SDS011;17847;31.524;74.366;2023-01-10T02:04:18;402.63;;;149.73;;
31224;SDS011;17847;31.524;74.366;2023-01-10T02:07:03;396.20;;;153.18;;
31224;SDS011;17847;31.524;74.366;2023-01-10T02:09:53;418.65;;;150.43;;
31224;SDS011;17847;31.524;74.366;2023-01-10T02:12:39;427.08;;;155.93;;
31224;SDS011;17847;31.524;74.366;2023-01-10T02:15:35;400.83;;;155.27;;
31224;SDS011;17847;31.524;74.366;2023-01-10T02:18:11;430.35;;;156.23;;
31224;SDS011;17847;31.524;74.366;2023-01-10T02:27:46;416.40;;;151.68;;
31224;SDS011;17847;31.524;74.366;2023-01-10T02:34:06;416.77;;;155.45;;
31224;SDS011;17847;31.524;74.366;2023-01-10T02:43:35;392.38;;;146.23;;
31224;SDS011;17847;31.524;74.366;2023-01-10T02:46:36;379.33;;;146.68;;
31224;SDS011;17847;31.524;74.366;2023-01-10T02:49:14;389.38;;;150.35;;
31224;SDS011;17847;31.524;74.366;2023-01-10T02:52:09;393.77;;;149.57;;
31224;SDS011;17847;31.524;74.366;2023-01-10T02:54:53;377.73;;;148.20;;
31224;SDS011;17847;31.524;74.366;2023-01-10T02:58:05;387.48;;;149.25;;
31224;SDS011;17847;31.524;74.366;2023-01-10T03:10:54;388.77;;;146.07;;
31224;SDS011;17847;31.524;74.366;2023-01-10T03:16:57;391.77;;;148.25;;
31224;SDS011;17847;31.524;74.366;2023-01-10T03:19:39;426.95;;;154.18;;
31224;SDS011;17847;31.524;74.366;2023-01-10T03:22:39;413.08;;;150.07;;
31224;SDS011;17847;31.524;74.366;2023-01-10T03:25:17;390.00;;;151.65;;
31224;SDS011;17847;31.524;74.366;2023-01-10T03:28:22;403.20;;;149.13;;
31224;SDS011;17847;31.524;74.366;2023-01-10T03:31:36;377.33;;;144.82;;
31224;SDS011;17847;31.524;74.366;2023-01-10T03:34:32;406.67;;;151.00;;
31224;SDS011;17847;31.524;74.366;2023-01-10T03:37:16;421.73;;;152.68;;
31224;SDS011;17847;31.524;74.366;2023-01-10T03:40:29;393.02;;;151.18;;
31224;SDS011;17847;31.524;74.366;2023-01-10T03:43:38;424.23;;;152.82;;
31224;SDS011;17847;31.524;74.366;2023-01-10T03:50:37;414.40;;;153.70;;
31224;SDS011;17847;31.524;74.366;2023-01-10T03:53:17;415.35;;;149.95;;
31224;SDS011;17847;31.524;74.366;2023-01-10T03:56:13;420.48;;;148.85;;
31224;SDS011;17847;31.524;74.366;2023-01-10T03:58:56;417.52;;;151.85;;
31224;SDS011;17847;31.524;74.366;2023-01-10T04:01:52;430.02;;;153.70;;
31224;SDS011;17847;31.524;74.366;2023-01-10T04:04:29;435.73;;;157.40;;
31224;SDS011;17847;31.524;74.366;2023-01-10T04:07:24;418.90;;;156.70;;
31224;SDS011;17847;31.524;74.366;2023-01-10T04:10:08;432.45;;;155.85;;
31224;SDS011;17847;31.524;74.366;2023-01-10T04:13:00;430.17;;;155.05;;
31224;SDS011;17847;31.524;74.366;2023-01-10T04:15:42;402.40;;;150.77;;
31224;SDS011;17847;31.524;74.366;2023-01-10T04:18:31;414.10;;;156.32;;
31224;SDS011;17847;31.524;74.366;2023-01-10T04:21:07;428.83;;;159.55;;
31224;SDS011;17847;31.524;74.366;2023-01-10T04:24:02;433.60;;;155.57;;
31224;SDS011;17847;31.524;74.366;2023-01-10T04:26:38;412.40;;;148.25;;
31224;SDS011;17847;31.524;74.366;2023-01-10T04:29:33;420.92;;;152.77;;
31224;SDS011;17847;31.524;74.366;2023-01-10T04:32:08;395.27;;;154.60;;
31224;SDS011;17847;31.524;74.366;2023-01-10T04:35:04;411.77;;;155.60;;
31224;SDS011;17847;31.524;74.366;2023-01-10T04:37:41;423.38;;;158.38;;
31224;SDS011;17847;31.524;74.366;2023-01-10T04:40:37;436.33;;;159.10;;
31224;SDS011;17847;31.524;74.366;2023-01-10T04:43:32;432.67;;;164.13;;
31224;SDS011;17847;31.524;74.366;2023-01-10T04:46:08;425.52;;;161.07;;
31224;SDS011;17847;31.524;74.366;2023-01-10T04:49:03;426.80;;;158.23;;
31224;SDS011;17847;31.524;74.366;2023-01-10T04:51:39;426.77;;;159.00;;
31224;SDS011;17847;31.524;74.366;2023-01-10T04:54:36;400.58;;;153.82;;
31224;SDS011;17847;31.524;74.366;2023-01-10T04:57:31;400.17;;;153.90;;
31224;SDS011;17847;31.524;74.366;2023-01-10T05:00:07;426.77;;;157.15;;
31224;SDS011;17847;31.524;74.366;2023-01-10T05:03:03;407.73;;;151.50;;
31224;SDS011;17847;31.524;74.366;2023-01-10T05:05:46;396.80;;;152.10;;
31224;SDS011;17847;31.524;74.366;2023-01-10T05:08:34;407.67;;;155.15;;
31224;SDS011;17847;31.524;74.366;2023-01-10T05:11:17;411.45;;;154.25;;
31224;SDS011;17847;31.524;74.366;2023-01-10T05:14:05;393.15;;;154.18;;
31224;SDS011;17847;31.524;74.366;2023-01-10T05:16:48;409.13;;;149.05;;
31224;SDS011;17847;31.524;74.366;2023-01-10T05:19:36;403.70;;;149.93;;
31224;SDS011;17847;31.524;74.366;2023-01-10T05:22:19;410.48;;;153.45;;
31224;SDS011;17847;31.524;74.366;2023-01-10T05:25:08;404.55;;;149.80;;
31224;SDS011;17847;31.524;74.366;2023-01-10T05:27:51;387.05;;;154.57;;
31224;SDS011;17847;31.524;74.366;2023-01-10T05:30:41;399.83;;;149.30;;
31224;SDS011;17847;31.524;74.366;2023-01-10T05:33:24;385.67;;;146.23;;
31224;SDS011;17847;31.524;74.366;2023-01-10T05:36:19;390.75;;;149.77;;
31224;SDS011;17847;31.524;74.366;2023-01-10T05:39:01;379.92;;;146.98;;
31224;SDS011;17847;31.524;74.366;2023-01-10T05:41:51;410.67;;;152.38;;
31224;SDS011;17847;31.524;74.366;2023-01-10T05:44:34;378.63;;;150.20;;
31224;SDS011;17847;31.524;74.366;2023-01-10T05:47:22;405.38;;;152.68;;
31224;SDS011;17847;31.524;74.366;2023-01-10T05:50:04;411.45;;;157.25;;
31224;SDS011;17847;31.524;74.366;2023-01-10T05:52:53;407.27;;;154.98;;
31224;SDS011;17847;31.524;74.366;2023-01-10T05:55:42;387.08;;;151.68;;
31224;SDS011;17847;31.524;74.366;2023-01-10T05:58:25;379.42;;;152.30;;
31224;SDS011;17847;31.524;74.366;2023-01-10T06:01:15;380.73;;;150.23;;
31224;SDS011;17847;31.524;74.366;2023-01-10T06:03:57;390.75;;;150.32;;
31224;SDS011;17847;31.524;74.366;2023-01-10T06:06:53;387.75;;;147.13;;
31224;SDS011;17847;31.524;74.366;2023-01-10T06:09:37;377.92;;;151.15;;
31224;SDS011;17847;31.524;74.366;2023-01-10T06:12:26;374.98;;;148.07;;
31224;SDS011;17847;31.524;74.366;2023-01-10T06:15:09;367.95;;;154.82;;
31224;SDS011;17847;31.524;74.366;2023-01-10T06:18:05;374.40;;;145.77;;
31224;SDS011;17847;31.524;74.366;2023-01-10T06:20:48;355.38;;;144.23;;
31224;SDS011;17847;31.524;74.366;2023-01-10T06:27:08;392.33;;;153.98;;
31224;SDS011;17847;31.524;74.366;2023-01-10T06:30:04;379.25;;;151.68;;
31224;SDS011;17847;31.524;74.366;2023-01-10T06:32:41;380.55;;;146.98;;
31224;SDS011;17847;31.524;74.366;2023-01-10T06:35:36;382.00;;;151.20;;
31224;SDS011;17847;31.524;74.366;2023-01-10T06:38:21;397.30;;;151.98;;
31224;SDS011;17847;31.524;74.366;2023-01-10T06:41:09;386.30;;;156.07;;
31224;SDS011;17847;31.524;74.366;2023-01-10T06:43:51;364.73;;;150.65;;
31224;SDS011;17847;31.524;74.366;2023-01-10T06:46:39;380.10;;;150.00;;
31224;SDS011;17847;31.524;74.366;2023-01-10T06:49:22;370.45;;;148.70;;
31224;SDS011;17847;31.524;74.366;2023-01-10T06:52:10;352.05;;;147.02;;
31224;SDS011;17847;31.524;74.366;2023-01-10T06:54:53;343.58;;;145.30;;
31224;SDS011;17847;31.524;74.366;2023-01-10T06:57:41;350.05;;;147.30;;
31224;SDS011;17847;31.524;74.366;2023-01-10T07:00:24;354.42;;;145.35;;
31224;SDS011;17847;31.524;74.366;2023-01-10T07:03:14;330.83;;;140.15;;
31224;SDS011;17847;31.524;74.366;2023-01-10T07:05:59;325.40;;;143.18;;
31224;SDS011;17847;31.524;74.366;2023-01-10T07:08:53;326.27;;;143.38;;
31224;SDS011;17847;31.524;74.366;2023-01-10T07:11:37;344.52;;;145.70;;
31224;SDS011;17847;31.524;74.366;2023-01-10T07:14:25;350.80;;;150.63;;
31224;SDS011;17847;31.524;74.366;2023-01-10T07:17:08;332.85;;;144.70;;
31224;SDS011;17847;31.524;74.366;2023-01-10T07:19:56;320.98;;;143.23;;
31224;SDS011;17847;31.524;74.366;2023-01-10T07:22:39;310.00;;;143.25;;
31224;SDS011;17847;31.524;74.366;2023-01-10T07:25:28;305.73;;;138.43;;
31224;SDS011;17847;31.524;74.366;2023-01-10T07:28:11;311.13;;;138.93;;
31224;SDS011;17847;31.524;74.366;2023-01-10T07:31:06;298.40;;;133.73;;
31224;SDS011;17847;31.524;74.366;2023-01-10T07:33:51;283.00;;;129.20;;
31224;SDS011;17847;31.524;74.366;2023-01-10T07:36:47;282.85;;;129.05;;
31224;SDS011;17847;31.524;74.366;2023-01-10T07:39:30;294.63;;;131.90;;
31224;SDS011;17847;31.524;74.366;2023-01-10T07:42:18;298.52;;;134.95;;
31224;SDS011;17847;31.524;74.366;2023-01-10T07:45:01;272.33;;;128.88;;
31224;SDS011;17847;31.524;74.366;2023-01-10T07:47:49;283.52;;;130.70;;
31224;SDS011;17847;31.524;74.366;2023-01-10T07:50:32;272.88;;;125.53;;
31224;SDS011;17847;31.524;74.366;2023-01-10T07:53:22;267.58;;;125.55;;
31224;SDS011;17847;31.524;74.366;2023-01-10T07:56:06;271.63;;;126.68;;
31224;SDS011;17847;31.524;74.366;2023-01-10T07:58:54;283.10;;;126.55;;
31224;SDS011;17847;31.524;74.366;2023-01-10T08:01:37;286.02;;;132.00;;
31224;SDS011;17847;31.524;74.366;2023-01-10T08:04:32;278.33;;;129.00;;
31224;SDS011;17847;31.524;74.366;2023-01-10T08:07:08;273.98;;;124.97;;
31224;SDS011;17847;31.524;74.366;2023-01-10T08:10:04;259.08;;;125.43;;
31224;SDS011;17847;31.524;74.366;2023-01-10T08:12:40;272.95;;;126.18;;
31224;SDS011;17847;31.524;74.366;2023-01-10T08:15:36;279.92;;;127.68;;
31224;SDS011;17847;31.524;74.366;2023-01-10T08:18:11;255.05;;;125.57;;
31224;SDS011;17847;31.524;74.366;2023-01-10T08:21:07;264.05;;;124.63;;
31224;SDS011;17847;31.524;74.366;2023-01-10T08:23:50;253.43;;;122.95;;
31224;SDS011;17847;31.524;74.366;2023-01-10T08:26:40;259.33;;;123.68;;
31224;SDS011;17847;31.524;74.366;2023-01-10T08:29:22;263.60;;;125.50;;
31224;SDS011;17847;31.524;74.366;2023-01-10T08:32:11;251.80;;;121.60;;
31224;SDS011;17847;31.524;74.366;2023-01-10T08:34:53;265.83;;;124.07;;
31224;SDS011;17847;31.524;74.366;2023-01-10T08:37:42;265.63;;;123.93;;
31224;SDS011;17847;31.524;74.366;2023-01-10T08:40:25;252.80;;;120.97;;
31224;SDS011;17847;31.524;74.366;2023-01-10T08:43:15;253.00;;;122.28;;
31224;SDS011;17847;31.524;74.366;2023-01-10T08:45:58;255.68;;;122.93;;
31224;SDS011;17847;31.524;74.366;2023-01-10T08:48:53;261.65;;;122.68;;
31224;SDS011;17847;31.524;74.366;2023-01-10T08:51:36;264.55;;;123.90;;
31224;SDS011;17847;31.524;74.366;2023-01-10T08:54:25;277.67;;;127.50;;
31224;SDS011;17847;31.524;74.366;2023-01-10T08:57:08;266.35;;;127.57;;
31224;SDS011;17847;31.524;74.366;2023-01-10T08:59:56;262.60;;;126.05;;
31224;SDS011;17847;31.524;74.366;2023-01-10T09:02:39;273.85;;;126.10;;
31224;SDS011;17847;31.524;74.366;2023-01-10T09:05:28;273.27;;;127.75;;
31224;SDS011;17847;31.524;74.366;2023-01-10T09:08:11;269.90;;;129.70;;
31224;SDS011;17847;31.524;74.366;2023-01-10T09:10:59;274.92;;;132.85;;
31224;SDS011;17847;31.524;74.366;2023-01-10T09:13:43;283.02;;;132.80;;
31224;SDS011;17847;31.524;74.366;2023-01-10T09:16:31;281.02;;;134.45;;
31224;SDS011;17847;31.524;74.366;2023-01-10T09:19:14;284.77;;;133.45;;
31224;SDS011;17847;31.524;74.366;2023-01-10T09:22:09;296.13;;;138.88;;
31224;SDS011;17847;31.524;74.366;2023-01-10T09:24:51;307.30;;;139.45;;
31224;SDS011;17847;31.524;74.366;2023-01-10T09:27:40;321.92;;;144.23;;
31224;SDS011;17847;31.524;74.366;2023-01-10T09:30:23;308.88;;;144.15;;
31224;SDS011;17847;31.524;74.366;2023-01-10T09:33:12;335.58;;;148.27;;
31224;SDS011;17847;31.524;74.366;2023-01-10T09:35:57;334.73;;;148.25;;
31224;SDS011;17847;31.524;74.366;2023-01-10T09:38:48;340.90;;;151.10;;
31224;SDS011;17847;31.524;74.366;2023-01-10T09:41:45;335.42;;;148.38;;
31224;SDS011;17847;31.524;74.366;2023-01-10T09:50:58;352.45;;;156.13;;
31224;SDS011;17847;31.524;74.366;2023-01-10T09:53:51;358.02;;;156.95;;
31224;SDS011;17847;31.524;74.366;2023-01-10T09:56:51;395.63;;;165.15;;
31224;SDS011;17847;31.524;74.366;2023-01-10T09:59:38;381.65;;;162.43;;
31224;SDS011;17847;31.524;74.366;2023-01-10T10:02:33;374.67;;;160.45;;
31224;SDS011;17847;31.524;74.366;2023-01-10T10:05:25;370.80;;;164.38;;
31224;SDS011;17847;31.524;74.366;2023-01-10T10:08:16;401.75;;;171.27;;
31224;SDS011;17847;31.524;74.366;2023-01-10T10:10:57;386.85;;;172.40;;
31224;SDS011;17847;31.524;74.366;2023-01-10T10:14:00;386.10;;;166.32;;
31224;SDS011;17847;31.524;74.366;2023-01-10T10:20:47;390.95;;;165.95;;
31224;SDS011;17847;31.524;74.366;2023-01-10T10:26:48;402.75;;;166.80;;
31224;SDS011;17847;31.524;74.366;2023-01-10T10:30:02;397.02;;;172.77;;
31224;SDS011;17847;31.524;74.366;2023-01-10T10:32:53;374.48;;;161.55;;
31224;SDS011;17847;31.524;74.366;2023-01-10T10:36:02;404.33;;;168.93;;
31224;SDS011;17847;31.524;74.366;2023-01-10T10:38:45;398.85;;;171.65;;
31224;SDS011;17847;31.524;74.366;2023-01-10T10:41:51;407.92;;;175.45;;
31224;SDS011;17847;31.524;74.366;2023-01-10T10:50:39;404.35;;;165.13;;
31224;SDS011;17847;31.524;74.366;2023-01-10T10:53:33;402.40;;;167.93;;
31224;SDS011;17847;31.524;74.366;2023-01-10T10:56:22;411.85;;;170.80;;
31224;SDS011;17847;31.524;74.366;2023-01-10T10:59:00;403.13;;;169.98;;
31224;SDS011;17847;31.524;74.366;2023-01-10T11:01:55;393.55;;;172.55;;
31224;SDS011;17847;31.524;74.366;2023-01-10T11:04:31;403.63;;;176.57;;
31224;SDS011;17847;31.524;74.366;2023-01-10T11:07:27;397.88;;;172.07;;
31224;SDS011;17847;31.524;74.366;2023-01-10T11:10:13;403.95;;;174.10;;
31224;SDS011;17847;31.524;74.366;2023-01-10T11:16:07;419.00;;;173.60;;
31224;SDS011;17847;31.524;74.366;2023-01-10T11:19:18;426.98;;;176.35;;
31224;SDS011;17847;31.524;74.366;2023-01-10T11:22:05;400.15;;;174.43;;
31224;SDS011;17847;31.524;74.366;2023-01-10T11:24:57;403.63;;;169.85;;
31224;SDS011;17847;31.524;74.366;2023-01-10T11:27:49;441.00;;;181.13;;
31224;SDS011;17847;31.524;74.366;2023-01-10T11:30:39;406.27;;;176.52;;
31224;SDS011;17847;31.524;74.366;2023-01-10T11:33:29;399.30;;;175.10;;
31224;SDS011;17847;31.524;74.366;2023-01-10T11:36:16;422.95;;;178.43;;
31224;SDS011;17847;31.524;74.366;2023-01-10T11:39:05;433.52;;;179.48;;
31224;SDS011;17847;31.524;74.366;2023-01-10T11:41:48;405.38;;;172.07;;
31224;SDS011;17847;31.524;74.366;2023-01-10T11:44:45;417.80;;;175.70;;
31224;SDS011;17847;31.524;74.366;2023-01-10T11:47:28;406.10;;;172.48;;
31224;SDS011;17847;31.524;74.366;2023-01-10T11:50:26;408.73;;;173.13;;
31224;SDS011;17847;31.524;74.366;2023-01-10T11:56:23;404.25;;;171.90;;
31224;SDS011;17847;31.524;74.366;2023-01-10T11:59:11;415.08;;;175.50;;
31224;SDS011;17847;31.524;74.366;2023-01-10T12:04:57;417.25;;;174.27;;
31224;SDS011;17847;31.524;74.366;2023-01-10T12:08:00;413.55;;;172.20;;
31224;SDS011;17847;31.524;74.366;2023-01-10T12:10:50;399.85;;;169.32;;
31224;SDS011;17847;31.524;74.366;2023-01-10T12:14:16;410.60;;;169.65;;
31224;SDS011;17847;31.524;74.366;2023-01-10T12:17:02;412.40;;;174.50;;
31224;SDS011;17847;31.524;74.366;2023-01-10T12:19:51;394.75;;;167.07;;
31224;SDS011;17847;31.524;74.366;2023-01-10T12:22:46;416.50;;;171.68;;
31224;SDS011;17847;31.524;74.366;2023-01-10T12:25:41;406.27;;;172.77;;
31224;SDS011;17847;31.524;74.366;2023-01-10T12:28:52;414.83;;;177.25;;
31224;SDS011;17847;31.524;74.366;2023-01-10T12:31:30;406.52;;;169.48;;
31224;SDS011;17847;31.524;74.366;2023-01-10T12:34:34;406.73;;;172.38;;
31224;SDS011;17847;31.524;74.366;2023-01-10T12:37:28;406.00;;;173.40;;
31224;SDS011;17847;31.524;74.366;2023-01-10T12:40:38;394.15;;;167.45;;
31224;SDS011;17847;31.524;74.366;2023-01-10T12:43:39;383.20;;;165.20;;
31224;SDS011;17847;31.524;74.366;2023-01-10T12:46:55;393.88;;;161.40;;
31224;SDS011;17847;31.524;74.366;2023-01-10T12:49:44;386.52;;;156.15;;
31224;SDS011;17847;31.524;74.366;2023-01-10T12:56:00;375.50;;;153.60;;
31224;SDS011;17847;31.524;74.366;2023-01-10T12:58:56;356.88;;;149.70;;
31224;SDS011;17847;31.524;74.366;2023-01-10T13:01:43;334.75;;;147.00;;
31224;SDS011;17847;31.524;74.366;2023-01-10T13:04:41;333.13;;;140.80;;
31224;SDS011;17847;31.524;74.366;2023-01-10T13:07:31;350.65;;;144.90;;
31224;SDS011;17847;31.524;74.366;2023-01-10T13:10:22;325.17;;;139.68;;
31224;SDS011;17847;31.524;74.366;2023-01-10T13:13:15;304.55;;;138.18;;
31224;SDS011;17847;31.524;74.366;2023-01-10T13:22:16;293.05;;;133.60;;
31224;SDS011;17847;31.524;74.366;2023-01-10T13:25:00;279.90;;;130.43;;
31224;SDS011;17847;31.524;74.366;2023-01-10T13:31:21;282.48;;;128.82;;
31224;SDS011;17847;31.524;74.366;2023-01-10T13:34:00;283.45;;;129.75;;
31224;SDS011;17847;31.524;74.366;2023-01-10T13:37:03;281.40;;;131.35;;
31224;SDS011;17847;31.524;74.366;2023-01-10T13:39:56;280.05;;;130.40;;
31224;SDS011;17847;31.524;74.366;2023-01-10T13:43:06;288.42;;;131.52;;
31224;SDS011;17847;31.524;74.366;2023-01-10T13:52:28;260.70;;;120.88;;
31224;SDS011;17847;31.524;74.366;2023-01-10T14:04:51;238.35;;;113.38;;
31224;SDS011;17847;31.524;74.366;2023-01-10T14:07:44;249.55;;;112.55;;
31224;SDS011;17847;31.524;74.366;2023-01-10T14:10:31;243.85;;;117.13;;
31224;SDS011;17847;31.524;74.366;2023-01-10T14:13:28;249.57;;;116.78;;
31224;SDS011;17847;31.524;74.366;2023-01-10T14:19:34;222.57;;;116.82;;
31224;SDS011;17847;31.524;74.366;2023-01-10T14:22:31;237.07;;;117.78;;
31224;SDS011;17847;31.524;74.366;2023-01-10T14:25:30;244.63;;;116.57;;
31224;SDS011;17847;31.524;74.366;2023-01-10T14:28:20;234.25;;;115.85;;
31224;SDS011;17847;31.524;74.366;2023-01-10T14:31:28;231.80;;;115.97;;
31224;SDS011;17847;31.524;74.366;2023-01-10T14:37:19;232.50;;;117.65;;
31224;SDS011;17847;31.524;74.366;2023-01-10T14:40:19;246.18;;;118.15;;
31224;SDS011;17847;31.524;74.366;2023-01-10T14:43:13;241.50;;;118.60;;
31224;SDS011;17847;31.524;74.366;2023-01-10T14:46:02;250.90;;;122.20;;
31224;SDS011;17847;31.524;74.366;2023-01-10T14:48:59;240.13;;;120.85;;
31224;SDS011;17847;31.524;74.366;2023-01-10T14:51:40;245.25;;;121.78;;
31224;SDS011;17847;31.524;74.366;2023-01-10T14:57:54;247.88;;;121.78;;
31224;SDS011;17847;31.524;74.366;2023-01-10T15:03:34;257.50;;;122.03;;
31224;SDS011;17847;31.524;74.366;2023-01-10T15:09:35;263.60;;;129.43;;
31224;SDS011;17847;31.524;74.366;2023-01-10T15:12:23;239.35;;;127.05;;
31224;SDS011;17847;31.524;74.366;2023-01-10T15:15:12;248.20;;;127.00;;
31224;SDS011;17847;31.524;74.366;2023-01-10T15:18:21;241.88;;;127.90;;
31224;SDS011;17847;31.524;74.366;2023-01-10T15:21:42;243.45;;;125.18;;
31224;SDS011;17847;31.524;74.366;2023-01-10T15:24:39;233.57;;;125.40;;
31224;SDS011;17847;31.524;74.366;2023-01-10T15:27:27;230.10;;;121.93;;
31224;SDS011;17847;31.524;74.366;2023-01-10T15:30:25;228.48;;;124.90;;
31224;SDS011;17847;31.524;74.366;2023-01-10T15:33:11;225.98;;;121.90;;
31224;SDS011;17847;31.524;74.366;2023-01-10T15:36:11;230.43;;;123.68;;
31224;SDS011;17847;31.524;74.366;2023-01-10T15:39:12;226.32;;;119.50;;
31224;SDS011;17847;31.524;74.366;2023-01-10T15:42:09;225.10;;;121.43;;
31224;SDS011;17847;31.524;74.366;2023-01-10T15:45:21;233.52;;;119.18;;
31224;SDS011;17847;31.524;74.366;2023-01-10T15:48:32;241.30;;;123.15;;
31224;SDS011;17847;31.524;74.366;2023-01-10T15:51:19;237.18;;;122.93;;
31224;SDS011;17847;31.524;74.366;2023-01-10T15:57:17;233.10;;;121.05;;
31224;SDS011;17847;31.524;74.366;2023-01-10T16:00:16;215.75;;;116.72;;
31224;SDS011;17847;31.524;74.366;2023-01-10T16:02:58;225.90;;;120.18;;
31224;SDS011;17847;31.524;74.366;2023-01-10T16:05:56;216.50;;;118.22;;
31224;SDS011;17847;31.524;74.366;2023-01-10T16:08:39;233.90;;;126.50;;
31224;SDS011;17847;31.524;74.366;2023-01-10T16:11:52;240.27;;;123.75;;
31224;SDS011;17847;31.524;74.366;2023-01-10T16:14:53;225.77;;;121.15;;
31224;SDS011;17847;31.524;74.366;2023-01-10T16:17:44;239.75;;;123.85;;
31224;SDS011;17847;31.524;74.366;2023-01-10T16:20:31;242.10;;;125.15;;
31224;SDS011;17847;31.524;74.366;2023-01-10T16:23:33;245.55;;;130.73;;
31224;SDS011;17847;31.524;74.366;2023-01-10T16:26:44;240.02;;;127.90;;
31224;SDS011;17847;31.524;74.366;2023-01-10T16:29:40;240.82;;;130.55;;
31224;SDS011;17847;31.524;74.366;2023-01-10T16:32:35;247.98;;;132.13;;
31224;SDS011;17847;31.524;74.366;2023-01-10T16:35:17;248.43;;;131.75;;
31224;SDS011;17847;31.524;74.366;2023-01-10T16:38:07;250.90;;;131.93;;
31224;SDS011;17847;31.524;74.366;2023-01-10T16:40:53;246.73;;;131.02;;
31224;SDS011;17847;31.524;74.366;2023-01-10T16:44:12;270.80;;;137.98;;
31224;SDS011;17847;31.524;74.366;2023-01-10T16:46:55;254.05;;;129.57;;
31224;SDS011;17847;31.524;74.366;2023-01-10T16:49:46;251.38;;;128.13;;
31224;SDS011;17847;31.524;74.366;2023-01-10T16:52:27;244.90;;;132.38;;
31224;SDS011;17847;31.524;74.366;2023-01-10T16:58:03;268.92;;;136.48;;
31224;SDS011;17847;31.524;74.366;2023-01-10T17:00:52;274.67;;;145.55;;
31224;SDS011;17847;31.524;74.366;2023-01-10T17:03:28;275.70;;;141.27;;
31224;SDS011;17847;31.524;74.366;2023-01-10T17:06:30;262.15;;;139.00;;
31224;SDS011;17847;31.524;74.366;2023-01-10T17:09:31;265.17;;;141.30;;
31224;SDS011;17847;31.524;74.366;2023-01-10T17:12:20;260.70;;;144.68;;
31224;SDS011;17847;31.524;74.366;2023-01-10T17:15:12;276.58;;;150.80;;
31224;SDS011;17847;31.524;74.366;2023-01-10T17:18:01;274.00;;;144.20;;
31224;SDS011;17847;31.524;74.366;2023-01-10T17:20:37;275.05;;;148.77;;
31224;SDS011;17847;31.524;74.366;2023-01-10T17:23:33;267.00;;;147.57;;
31224;SDS011;17847;31.524;74.366;2023-01-10T17:26:16;275.17;;;150.38;;
31224;SDS011;17847;31.524;74.366;2023-01-10T17:29:06;277.42;;;149.60;;
31224;SDS011;17847;31.524;74.366;2023-01-10T17:32:02;278.13;;;153.57;;
31224;SDS011;17847;31.524;74.366;2023-01-10T17:34:37;281.35;;;153.63;;
31224;SDS011;17847;31.524;74.366;2023-01-10T17:37:33;301.95;;;156.00;;
31224;SDS011;17847;31.524;74.366;2023-01-10T17:40:16;298.55;;;157.73;;
31224;SDS011;17847;31.524;74.366;2023-01-10T17:43:05;325.88;;;165.98;;
31224;SDS011;17847;31.524;74.366;2023-01-10T17:45:49;324.55;;;164.60;;
31224;SDS011;17847;31.524;74.366;2023-01-10T17:48:38;319.80;;;167.52;;